createdAt,value
2018-06-20T00:00:45.879Z,15.56
2018-06-20T00:03:15.854Z,15.73
2018-06-20T00:05:44.504Z,15.88
2018-06-20T00:08:13.140Z,15.55
2018-06-20T00:10:41.801Z,15.29
2018-06-20T00:13:10.473Z,15.36
2018-06-20T00:15:39.103Z,15.36
2018-06-20T00:18:07.822Z,15.33
2018-06-20T00:20:36.430Z,15.26
2018-06-20T00:23:05.063Z,15.08
2018-06-20T00:25:33.752Z,14.95
2018-06-20T00:28:02.463Z,14.96
2018-06-20T00:30:31.127Z,14.97
2018-06-20T00:32:59.821Z,14.88
2018-06-20T00:35:28.527Z,14.69
2018-06-20T00:37:57.195Z,14.82
2018-06-20T00:40:25.875Z,14.70
2018-06-20T00:42:54.783Z,14.50
2018-06-20T00:45:23.482Z,14.32
2018-06-20T00:47:52.169Z,14.21
2018-06-20T00:50:20.852Z,14.32
2018-06-20T00:52:49.536Z,14.33
2018-06-20T00:55:28.363Z,14.36
2018-06-20T00:57:57.011Z,14.47
2018-06-20T01:00:25.707Z,14.30
2018-06-20T01:02:54.279Z,14.27
2018-06-20T01:05:22.949Z,14.33
2018-06-20T01:07:51.587Z,13.94
2018-06-20T01:10:20.271Z,13.84
2018-06-20T01:12:48.946Z,13.97
2018-06-20T01:15:17.635Z,14.15
2018-06-20T01:17:46.509Z,13.77
2018-06-20T01:20:15.256Z,13.85
2018-06-20T01:22:43.916Z,13.80
2018-06-20T01:25:12.630Z,13.96
2018-06-20T01:27:41.344Z,13.99
2018-06-20T01:30:10.056Z,14.15
2018-06-20T01:32:38.755Z,13.98
2018-06-20T01:35:07.451Z,13.86
2018-06-20T01:37:36.183Z,13.91
2018-06-20T01:40:04.853Z,14.01
2018-06-20T01:42:33.516Z,13.94
2018-06-20T01:45:02.224Z,13.86
2018-06-20T01:47:30.927Z,13.89
2018-06-20T01:49:59.615Z,13.98
2018-06-20T01:52:28.304Z,13.96
2018-06-20T01:54:56.997Z,13.89
2018-06-20T01:57:25.635Z,13.73
2018-06-20T01:59:54.413Z,13.85
2018-06-20T02:02:23.109Z,13.93
2018-06-20T02:04:51.787Z,13.83
2018-06-20T02:07:20.539Z,13.74
2018-06-20T02:09:49.241Z,13.70
2018-06-20T02:12:18.086Z,13.88
2018-06-20T02:14:46.784Z,13.80
2018-06-20T02:17:15.454Z,13.77
2018-06-20T02:19:44.122Z,13.81
2018-06-20T02:22:12.847Z,13.74
2018-06-20T02:24:42.211Z,13.86
2018-06-20T02:27:10.914Z,13.80
2018-06-20T02:29:39.580Z,13.83
2018-06-20T02:32:08.268Z,13.74
2018-06-20T02:34:36.947Z,13.82
2018-06-20T02:37:06.380Z,13.65
2018-06-20T02:39:35.268Z,13.74
2018-06-20T02:42:03.982Z,13.69
2018-06-20T02:44:32.631Z,13.67
2018-06-20T02:47:01.287Z,13.74
2018-06-20T02:49:29.976Z,13.73
2018-06-20T02:51:58.649Z,13.76
2018-06-20T02:54:27.941Z,13.76
2018-06-20T02:56:56.636Z,13.45
2018-06-20T02:59:25.280Z,13.10
2018-06-20T03:01:53.960Z,13.07
2018-06-20T03:04:22.632Z,12.89
2018-06-20T03:06:51.371Z,12.82
2018-06-20T03:09:25.567Z,12.80
2018-06-20T03:11:54.263Z,12.75
2018-06-20T03:14:23.819Z,12.82
2018-06-20T03:16:52.489Z,12.89
2018-06-20T03:19:21.151Z,13.00
2018-06-20T03:21:49.853Z,13.07
2018-06-20T03:24:18.675Z,12.99
2018-06-20T03:26:47.327Z,12.93
2018-06-20T03:29:15.989Z,12.88
2018-06-20T03:31:44.631Z,13.02
2018-06-20T03:34:13.391Z,13.02
2018-06-20T03:36:42.091Z,13.00
2018-06-20T03:39:11.195Z,13.03
2018-06-20T03:41:40.296Z,13.15
2018-06-20T03:44:08.999Z,13.07
2018-06-20T03:46:37.647Z,13.27
2018-06-20T03:49:06.382Z,13.08
2018-06-20T03:51:35.145Z,12.96
2018-06-20T03:54:03.822Z,13.03
2018-06-20T03:56:32.478Z,13.19
2018-06-20T03:59:01.179Z,13.16
2018-06-20T04:01:29.895Z,13.17
2018-06-20T04:03:58.576Z,13.23
2018-06-20T04:06:27.309Z,13.33
2018-06-20T04:08:56.023Z,13.43
2018-06-20T04:11:24.739Z,13.45
2018-06-20T04:13:53.476Z,13.64
2018-06-20T04:16:22.169Z,13.73
2018-06-20T04:18:50.869Z,13.71
2018-06-20T04:21:19.547Z,13.75
2018-06-20T04:23:48.254Z,13.95
2018-06-20T04:26:16.873Z,13.93
2018-06-20T04:28:45.626Z,14.00
2018-06-20T04:31:14.292Z,14.11
2018-06-20T04:33:42.967Z,14.20
2018-06-20T04:36:11.715Z,14.42
2018-06-20T04:38:40.425Z,14.55
2018-06-20T04:41:09.074Z,14.63
2018-06-20T04:43:37.962Z,14.72
2018-06-20T04:46:06.859Z,14.98
2018-06-20T04:48:36.255Z,15.07
2018-06-20T04:51:04.950Z,15.16
2018-06-20T04:53:33.635Z,15.09
2018-06-20T04:56:02.911Z,15.26
2018-06-20T04:58:31.636Z,15.34
2018-06-20T05:01:00.344Z,15.19
2018-06-20T05:03:28.991Z,15.46
2018-06-20T05:05:57.647Z,15.63
2018-06-20T05:08:26.348Z,15.66
2018-06-20T05:10:55.047Z,15.60
2018-06-20T05:13:23.703Z,15.74
2018-06-20T05:15:52.884Z,15.78
2018-06-20T05:18:21.517Z,15.84
2018-06-20T05:20:50.304Z,15.96
2018-06-20T05:23:19.014Z,15.92
2018-06-20T05:25:47.707Z,16.00
2018-06-20T05:28:16.396Z,16.07
2018-06-20T05:30:48.855Z,16.19
2018-06-20T05:33:17.849Z,16.05
2018-06-20T05:35:46.742Z,16.10
2018-06-20T05:38:15.852Z,16.24
2018-06-20T05:40:44.948Z,16.39
2018-06-20T05:43:13.680Z,16.48
2018-06-20T05:45:42.356Z,16.52
2018-06-20T05:48:11.031Z,16.67
2018-06-20T05:50:39.698Z,16.77
2018-06-20T05:53:08.407Z,16.76
2018-06-20T05:55:37.051Z,16.81
2018-06-20T05:58:05.751Z,16.80
2018-06-20T06:00:34.467Z,16.98
2018-06-20T06:03:03.112Z,16.89
2018-06-20T06:05:31.896Z,16.93
2018-06-20T06:08:06.560Z,17.10
2018-06-20T06:10:35.295Z,17.14
2018-06-20T06:13:03.975Z,17.17
2018-06-20T06:15:32.663Z,17.30
2018-06-20T06:18:01.350Z,17.37
2018-06-20T06:20:30.027Z,17.47
2018-06-20T06:22:58.868Z,17.50
2018-06-20T06:25:27.539Z,17.55
2018-06-20T06:27:56.204Z,17.68
2018-06-20T06:30:25.689Z,17.84
2018-06-20T06:32:54.372Z,17.90
2018-06-20T06:35:23.093Z,17.89
2018-06-20T06:37:51.801Z,17.94
2018-06-20T06:40:20.634Z,17.98
2018-06-20T06:42:49.342Z,18.14
2018-06-20T06:45:18.068Z,18.24
2018-06-20T06:47:46.723Z,18.52
2018-06-20T06:50:15.518Z,18.76
2018-06-20T06:52:44.190Z,18.98
2018-06-20T06:55:12.913Z,19.23
2018-06-20T06:58:45.487Z,19.36
2018-06-20T07:01:14.186Z,19.36
2018-06-20T07:03:43.066Z,19.80
2018-06-20T07:06:11.744Z,20.12
2018-06-20T07:08:40.575Z,19.70
2018-06-20T07:11:09.431Z,19.99
2018-06-20T07:13:38.075Z,19.91
2018-06-20T07:16:06.746Z,20.27
2018-06-20T07:18:35.427Z,20.22
2018-06-20T07:21:04.122Z,20.36
2018-06-20T07:23:32.796Z,20.59
2018-06-20T07:26:01.455Z,20.28
2018-06-20T07:28:30.362Z,20.39
2018-06-20T07:30:59.121Z,20.56
2018-06-20T07:33:27.811Z,20.47
2018-06-20T07:35:56.632Z,20.51
2018-06-20T07:38:25.127Z,20.63
2018-06-20T07:40:53.828Z,20.88
2018-06-20T07:43:22.585Z,20.91
2018-06-20T07:45:51.324Z,21.06
2018-06-20T07:48:19.995Z,21.13
2018-06-20T07:50:48.799Z,21.25
2018-06-20T07:53:17.431Z,21.16
2018-06-20T07:55:46.148Z,21.34
2018-06-20T07:58:20.088Z,21.64
2018-06-20T08:00:54.115Z,21.88
2018-06-20T08:03:28.122Z,22.01
2018-06-20T08:06:02.663Z,22.58
2018-06-20T08:08:36.651Z,22.50
2018-06-20T08:11:10.615Z,22.46
2018-06-20T08:13:44.644Z,22.01
2018-06-20T08:16:18.843Z,22.97
2018-06-20T08:18:52.865Z,23.60
2018-06-20T08:21:21.514Z,23.81
2018-06-20T08:23:50.196Z,23.74
2018-06-20T08:26:19.413Z,24.05
2018-06-20T08:28:48.098Z,24.30
2018-06-20T08:31:16.813Z,24.16
2018-06-20T08:33:45.502Z,24.26
2018-06-20T08:36:14.259Z,24.87
2018-06-20T08:38:42.936Z,24.51
2018-06-20T08:41:11.658Z,24.63
2018-06-20T08:43:40.320Z,25.06
2018-06-20T08:46:08.959Z,25.47
2018-06-20T08:48:37.619Z,24.77
2018-06-20T08:51:06.690Z,25.19
2018-06-20T08:53:35.338Z,25.31
2018-06-20T08:56:04.018Z,25.24
2018-06-20T08:58:32.658Z,24.87
2018-06-20T09:01:02.585Z,25.04
2018-06-20T09:03:31.236Z,26.06
2018-06-20T09:06:05.375Z,26.22
2018-06-20T09:08:39.306Z,25.65
2018-06-20T09:11:13.267Z,25.87
2018-06-20T09:13:47.277Z,25.57
2018-06-20T09:18:29.057Z,26.23
2018-06-20T09:20:57.719Z,25.63
2018-06-20T09:23:26.447Z,25.14
2018-06-20T09:25:55.168Z,25.45
2018-06-20T09:28:23.895Z,25.49
2018-06-20T09:30:52.623Z,26.24
2018-06-20T09:33:21.327Z,26.33
2018-06-20T09:35:50.113Z,26.55
2018-06-20T09:38:18.777Z,26.58
2018-06-20T09:40:47.451Z,26.50
2018-06-20T09:43:16.135Z,26.04
2018-06-20T09:45:44.891Z,25.66
2018-06-20T09:48:13.769Z,26.13
2018-06-20T09:50:48.336Z,26.34
2018-06-20T09:53:17.045Z,25.92
2018-06-20T09:55:45.831Z,26.20
2018-06-20T09:58:15.610Z,25.65
2018-06-20T10:00:50.121Z,26.38
2018-06-20T10:03:24.166Z,26.42
2018-06-20T10:05:58.423Z,26.47
2018-06-20T10:08:32.484Z,26.54
2018-06-20T10:11:06.589Z,26.89
2018-06-20T10:13:40.718Z,27.35
2018-06-20T10:16:09.431Z,27.32
2018-06-20T10:18:38.196Z,26.92
2018-06-20T10:21:06.934Z,26.83
2018-06-20T10:23:35.637Z,27.53
2018-06-20T10:26:04.287Z,28.10
2018-06-20T10:28:33.163Z,28.30
2018-06-20T10:31:02.003Z,27.91
2018-06-20T10:33:30.705Z,28.24
2018-06-20T10:35:59.588Z,27.74
2018-06-20T10:38:28.341Z,27.52
2018-06-20T10:40:57.006Z,26.89
2018-06-20T10:43:25.995Z,27.28
2018-06-20T10:45:59.919Z,27.30
2018-06-20T10:48:28.598Z,27.78
2018-06-20T10:50:57.266Z,28.16
2018-06-20T10:53:25.988Z,28.12
2018-06-20T10:55:54.671Z,27.76
2018-06-20T10:58:28.631Z,28.19
2018-06-20T11:02:03.951Z,28.11
2018-06-20T11:04:37.960Z,27.91
2018-06-20T11:07:12.056Z,27.46
2018-06-20T11:09:46.525Z,27.57
2018-06-20T11:12:20.457Z,27.93
2018-06-20T11:14:49.120Z,28.05
2018-06-20T11:17:17.863Z,27.95
2018-06-20T11:19:46.503Z,27.52
2018-06-20T11:22:15.433Z,27.29
2018-06-20T11:24:44.103Z,27.69
2018-06-20T11:27:12.827Z,27.12
2018-06-20T11:29:41.548Z,27.85
2018-06-20T11:32:10.248Z,27.68
2018-06-20T11:34:38.952Z,27.66
2018-06-20T11:37:07.618Z,26.43
2018-06-20T11:39:36.378Z,27.07
2018-06-20T11:42:05.064Z,27.06
2018-06-20T11:44:33.728Z,26.27
2018-06-20T11:47:07.756Z,26.58
2018-06-20T11:49:36.415Z,27.13
2018-06-20T11:52:09.292Z,26.95
2018-06-20T11:54:37.978Z,26.36
2018-06-20T11:57:06.739Z,26.45
2018-06-20T11:59:40.849Z,26.61
2018-06-20T12:02:15.008Z,26.93
2018-06-20T12:04:49.064Z,27.36
2018-06-20T12:07:23.322Z,26.98
2018-06-20T12:09:57.304Z,26.87
2018-06-20T12:12:31.375Z,26.82
2018-06-20T12:15:05.636Z,27.00
2018-06-20T12:17:39.887Z,26.58
2018-06-20T12:20:13.859Z,26.24
2018-06-20T12:22:47.946Z,26.20
2018-06-20T12:25:21.911Z,26.46
2018-06-20T12:27:55.941Z,26.80
2018-06-20T12:30:29.932Z,26.24
2018-06-20T12:33:04.302Z,26.84
2018-06-20T12:35:38.364Z,27.27
2018-06-20T12:38:12.499Z,27.09
2018-06-20T12:40:46.613Z,27.69
2018-06-20T12:43:20.622Z,27.61
2018-06-20T12:45:53.544Z,27.69
2018-06-20T12:48:22.198Z,27.05
2018-06-20T12:50:50.858Z,27.08
2018-06-20T12:53:19.565Z,26.77
2018-06-20T12:55:48.377Z,26.92
2018-06-20T12:58:17.120Z,27.14
2018-06-20T13:00:45.800Z,27.46
2018-06-20T13:03:14.527Z,27.36
2018-06-20T13:05:43.345Z,27.36
2018-06-20T13:08:12.093Z,26.84
2018-06-20T13:10:40.768Z,26.56
2018-06-20T13:13:09.428Z,26.92
2018-06-20T13:15:38.043Z,27.02
2018-06-20T13:18:06.739Z,26.69
2018-06-20T13:20:35.469Z,26.54
2018-06-20T13:23:04.197Z,26.46
2018-06-20T13:25:34.340Z,26.31
2018-06-20T13:28:03.025Z,26.40
2018-06-20T13:30:31.843Z,26.62
2018-06-20T13:33:05.869Z,26.90
2018-06-20T13:35:40.041Z,27.16
2018-06-20T13:38:14.288Z,27.46
2018-06-20T13:40:48.465Z,27.24
2018-06-20T13:43:22.640Z,27.22
2018-06-20T13:45:56.624Z,26.86
2018-06-20T13:48:31.094Z,26.72
2018-06-20T13:50:59.853Z,26.28
2018-06-20T13:53:29.393Z,25.95
2018-06-20T13:55:58.055Z,26.03
2018-06-20T13:58:27.252Z,26.06
2018-06-20T14:00:55.988Z,25.82
2018-06-20T14:03:25.491Z,25.92
2018-06-20T14:05:56.412Z,25.92
2018-06-20T14:08:25.160Z,25.93
2018-06-20T14:10:53.872Z,26.22
2018-06-20T14:13:22.583Z,25.89
2018-06-20T14:15:51.262Z,26.08
2018-06-20T14:18:19.943Z,25.79
2018-06-20T14:20:54.169Z,25.99
2018-06-20T14:23:22.899Z,26.27
2018-06-20T14:25:51.663Z,26.01
2018-06-20T14:28:20.477Z,26.12
2018-06-20T14:30:54.582Z,26.72
2018-06-20T14:33:29.017Z,26.73
2018-06-20T14:36:02.998Z,26.90
2018-06-20T14:38:37.145Z,27.13
2018-06-20T14:41:11.077Z,26.89
2018-06-20T14:43:45.088Z,26.73
2018-06-20T14:46:15.278Z,26.70
2018-06-20T14:48:44.184Z,26.77
2018-06-20T14:51:12.867Z,26.96
2018-06-20T14:53:41.860Z,26.85
2018-06-20T14:56:10.527Z,26.86
2018-06-20T14:58:39.483Z,27.13
2018-06-20T15:01:08.489Z,26.99
2018-06-20T15:03:37.117Z,26.79
2018-06-20T15:06:05.903Z,26.64
2018-06-20T15:08:34.660Z,26.45
2018-06-20T15:11:03.330Z,26.54
2018-06-20T15:13:32.047Z,26.73
2018-06-20T15:16:06.245Z,26.93
2018-06-20T15:18:34.970Z,26.57
2018-06-20T15:21:03.668Z,26.61
2018-06-20T15:23:32.387Z,26.73
2018-06-20T15:26:06.479Z,26.70
2018-06-20T15:28:40.440Z,26.63
2018-06-20T15:31:14.443Z,26.32
2018-06-20T15:33:48.916Z,26.71
2018-06-20T15:36:22.899Z,26.77
2018-06-20T15:38:51.640Z,26.51
2018-06-20T15:41:20.347Z,26.50
2018-06-20T15:43:49.079Z,26.38
2018-06-20T15:46:17.760Z,26.55
2018-06-20T15:48:46.743Z,26.55
2018-06-20T15:51:15.512Z,26.65
2018-06-20T15:53:44.171Z,26.58
2018-06-20T15:56:12.907Z,26.63
2018-06-20T15:58:41.560Z,26.52
2018-06-20T16:01:10.265Z,26.41
2018-06-20T16:03:38.934Z,26.28
2018-06-20T16:06:07.632Z,26.25
2018-06-20T16:08:40.519Z,26.34
2018-06-20T16:11:09.244Z,26.33
2018-06-20T16:13:37.884Z,26.42
2018-06-20T16:16:06.658Z,26.12
2018-06-20T16:18:35.979Z,26.37
2018-06-20T16:21:10.256Z,26.27
2018-06-20T16:23:44.326Z,26.27
2018-06-20T16:26:18.415Z,26.28
2018-06-20T16:28:52.524Z,26.33
2018-06-20T16:31:21.254Z,26.28
2018-06-20T16:33:50.068Z,26.27
2018-06-20T16:36:18.751Z,26.34
2018-06-20T16:38:47.498Z,26.26
2018-06-20T16:41:16.275Z,26.27
2018-06-20T16:43:45.089Z,26.28
2018-06-20T16:46:13.703Z,26.28
2018-06-20T16:48:42.418Z,26.46
2018-06-20T16:51:11.080Z,26.20
2018-06-20T16:53:39.766Z,26.23
2018-06-20T16:56:08.500Z,26.24
2018-06-20T16:58:37.287Z,26.12
2018-06-20T17:01:11.995Z,26.11
2018-06-20T17:03:40.710Z,26.05
2018-06-20T17:06:09.465Z,25.99
2018-06-20T17:08:38.174Z,26.05
2018-06-20T17:11:06.937Z,25.83
2018-06-20T17:13:40.937Z,25.94
2018-06-20T17:16:14.966Z,26.10
2018-06-20T17:18:48.986Z,26.13
2018-06-20T17:21:23.003Z,26.07
2018-06-20T17:23:57.050Z,26.09
2018-06-20T17:26:28.393Z,25.99
2018-06-20T17:28:57.148Z,25.99
2018-06-20T17:31:26.855Z,26.04
2018-06-20T17:33:55.634Z,26.02
2018-06-20T17:36:24.340Z,25.99
2018-06-20T17:38:53.105Z,26.09
2018-06-20T17:41:21.933Z,26.05
2018-06-20T17:43:50.691Z,26.12
2018-06-20T17:46:19.442Z,26.18
2018-06-20T17:48:48.193Z,26.23
2018-06-20T17:51:17.133Z,26.01
2018-06-20T17:53:46.228Z,25.90
2018-06-20T17:56:15.492Z,25.93
2018-06-20T17:58:44.726Z,25.95
2018-06-20T18:01:13.585Z,25.79
2018-06-20T18:03:42.821Z,25.86
2018-06-20T18:06:17.018Z,25.90
2018-06-20T18:08:51.007Z,25.74
2018-06-20T18:12:25.497Z,25.67
2018-06-20T18:14:59.752Z,25.74
2018-06-20T18:17:28.467Z,25.65
2018-06-20T18:19:57.312Z,25.51
2018-06-20T18:22:26.034Z,25.66
2018-06-20T18:24:54.875Z,25.59
2018-06-20T18:27:23.640Z,25.60
2018-06-20T18:29:52.411Z,25.56
2018-06-20T18:32:21.194Z,25.50
2018-06-20T18:34:50.042Z,25.61
2018-06-20T18:37:18.856Z,25.39
2018-06-20T18:39:52.971Z,25.37
2018-06-20T18:42:21.835Z,25.31
2018-06-20T18:44:50.902Z,25.31
2018-06-20T18:47:25.463Z,25.24
2018-06-20T18:49:54.325Z,25.21
2018-06-20T18:52:23.087Z,25.22
2018-06-20T18:54:51.755Z,25.06
2018-06-20T18:57:25.897Z,24.99
2018-06-20T19:00:00.166Z,25.09
2018-06-20T19:02:34.237Z,24.99
2018-06-20T19:05:08.307Z,24.91
2018-06-20T19:07:42.319Z,24.78
2018-06-20T19:10:11.194Z,24.75
2018-06-20T19:12:41.124Z,24.71
2018-06-20T19:15:09.775Z,24.64
2018-06-20T19:17:38.641Z,24.50
2018-06-20T19:20:07.391Z,24.47
2018-06-20T19:22:36.113Z,24.47
2018-06-20T19:25:05.387Z,24.49
2018-06-20T19:27:34.163Z,24.40
2018-06-20T19:30:02.932Z,24.17
2018-06-20T19:32:31.732Z,24.15
2018-06-20T19:35:00.441Z,24.02
2018-06-20T19:37:29.143Z,23.92
2018-06-20T19:39:58.049Z,23.97
2018-06-20T19:42:26.727Z,23.95
2018-06-20T19:44:55.931Z,23.84
2018-06-20T19:47:24.323Z,23.72
2018-06-20T19:49:53.039Z,23.64
2018-06-20T19:52:21.805Z,23.60
2018-06-20T19:54:50.436Z,23.66
2018-06-20T19:57:19.944Z,23.49
2018-06-20T19:59:48.621Z,23.38
2018-06-20T20:02:17.365Z,23.55
2018-06-20T20:04:46.176Z,23.39
2018-06-20T20:07:14.983Z,23.32
2018-06-20T20:09:43.709Z,23.38
2018-06-20T20:12:12.488Z,23.31
2018-06-20T20:14:41.195Z,23.18
2018-06-20T20:17:09.852Z,23.15
2018-06-20T20:19:38.543Z,23.12
2018-06-20T20:22:07.548Z,23.08
2018-06-20T20:24:36.291Z,23.00
2018-06-20T20:27:05.024Z,22.94
2018-06-20T20:29:33.734Z,22.79
2018-06-20T20:32:02.423Z,22.70
2018-06-20T20:34:31.069Z,22.78
2018-06-20T20:36:59.763Z,22.66
2018-06-20T20:39:28.468Z,22.65
2018-06-20T20:41:57.314Z,22.72
2018-06-20T20:44:26.001Z,22.81
2018-06-20T20:46:54.691Z,22.78
2018-06-20T20:49:24.054Z,22.79
2018-06-20T20:51:52.791Z,22.90
2018-06-20T20:54:21.455Z,22.67
2018-06-20T20:56:50.866Z,22.52
2018-06-20T20:59:19.601Z,22.26
2018-06-20T21:01:48.331Z,22.17
2018-06-20T21:04:17.145Z,22.13
2018-06-20T21:06:45.835Z,22.08
2018-06-20T21:09:16.840Z,22.11
2018-06-20T21:11:45.539Z,22.17
2018-06-20T21:14:14.339Z,22.14
2018-06-20T21:16:43.291Z,22.06
2018-06-20T21:19:12.026Z,22.01
2018-06-20T21:21:41.873Z,22.01
2018-06-20T21:24:11.152Z,22.02
2018-06-20T21:26:39.995Z,21.96
2018-06-20T21:29:08.994Z,21.97
2018-06-20T21:31:39.199Z,21.87
2018-06-20T21:34:07.862Z,21.87
2018-06-20T21:36:36.572Z,21.84
2018-06-20T21:39:07.762Z,21.72
2018-06-20T21:41:36.456Z,21.62
2018-06-20T21:44:05.395Z,21.54
2018-06-20T21:46:34.219Z,21.63
2018-06-20T21:49:03.025Z,21.50
2018-06-20T21:51:33.500Z,21.38
2018-06-20T21:54:02.185Z,21.34
2018-06-20T21:56:31.868Z,21.32
2018-06-20T21:59:00.541Z,21.32
2018-06-20T22:01:29.227Z,21.31
2018-06-20T22:03:58.641Z,21.38
2018-06-20T22:06:27.358Z,21.19
2018-06-20T22:08:56.715Z,21.27
2018-06-20T22:11:25.601Z,21.17
2018-06-20T22:13:54.363Z,21.11
2018-06-20T22:16:24.639Z,21.11
2018-06-20T22:18:53.451Z,21.05
2018-06-20T22:21:22.136Z,21.01
2018-06-20T22:23:53.209Z,20.91
2018-06-20T22:26:22.663Z,20.96
2018-06-20T22:28:51.519Z,20.91
2018-06-20T22:31:20.798Z,20.90
2018-06-20T22:33:49.668Z,20.92
2018-06-20T22:36:18.452Z,20.80
2018-06-20T22:38:48.170Z,20.85
2018-06-20T22:41:16.926Z,21.03
2018-06-20T22:43:45.602Z,20.92
2018-06-20T22:46:14.418Z,20.96
2018-06-20T22:48:43.106Z,20.88
2018-06-20T22:51:11.781Z,21.00
2018-06-20T22:53:40.481Z,21.02
2018-06-20T22:56:10.781Z,20.85
2018-06-20T22:58:39.489Z,20.68
2018-06-20T23:01:08.151Z,20.51
2018-06-20T23:03:36.803Z,20.60
2018-06-20T23:06:05.750Z,20.46
2018-06-20T23:08:34.446Z,20.48
2018-06-20T23:11:03.673Z,20.44
2018-06-20T23:13:33.046Z,20.29
2018-06-20T23:16:01.784Z,20.21
2018-06-20T23:18:30.479Z,20.17
2018-06-20T23:20:59.203Z,20.13
2018-06-20T23:23:27.883Z,20.20
2018-06-20T23:25:56.526Z,20.01
2018-06-20T23:28:25.262Z,19.90
2018-06-20T23:30:53.925Z,19.60
2018-06-20T23:33:22.603Z,19.46
2018-06-20T23:35:51.300Z,19.58
2018-06-20T23:38:20.020Z,19.50
2018-06-20T23:40:48.708Z,19.59
2018-06-20T23:43:18.358Z,19.54
2018-06-20T23:45:48.486Z,19.45
2018-06-20T23:48:17.409Z,19.25
2018-06-20T23:50:46.133Z,19.36
2018-06-20T23:53:14.845Z,19.18
2018-06-20T23:55:43.524Z,19.13
2018-06-20T23:58:12.230Z,19.12
